createdAt,value
2022-12-25T00:00:18.320Z,30.77
2022-12-25T00:02:50.702Z,34.08
2022-12-25T00:05:19.253Z,35.95
2022-12-25T00:07:47.738Z,35.40
2022-12-25T00:10:16.331Z,30.80
2022-12-25T00:12:44.869Z,33.22
2022-12-25T00:15:13.605Z,33.05
2022-12-25T00:17:42.145Z,34.47
2022-12-25T00:20:12.495Z,30.45
2022-12-25T00:22:40.999Z,32.20
2022-12-25T00:25:10.277Z,31.55
2022-12-25T00:27:39.035Z,44.28
2022-12-25T00:30:08.797Z,29.88
2022-12-25T00:32:37.851Z,30.08
2022-12-25T00:35:07.178Z,32.40
2022-12-25T00:37:37.177Z,29.58
2022-12-25T00:40:06.443Z,25.52
2022-12-25T00:42:34.876Z,22.30
2022-12-25T00:45:04.832Z,28.50
2022-12-25T00:47:34.086Z,23.25
2022-12-25T00:50:02.649Z,28.45
2022-12-25T00:52:31.050Z,23.05
2022-12-25T00:55:01.079Z,29.33
2022-12-25T00:57:29.628Z,25.23
2022-12-25T00:59:58.246Z,29.02
2022-12-25T01:02:26.943Z,22.63
2022-12-25T01:04:57.322Z,20.17
2022-12-25T01:07:27.464Z,24.90
2022-12-25T01:10:13.382Z,27.77
2022-12-25T01:12:44.721Z,25.58
2022-12-25T01:15:14.258Z,30.95
2022-12-25T01:17:44.130Z,23.33
2022-12-25T01:22:42.946Z,27.63
2022-12-25T01:25:12.418Z,20.83
2022-12-25T01:27:42.856Z,27.30
2022-12-25T01:30:12.538Z,32.72
2022-12-25T01:32:41.101Z,28.77
2022-12-25T01:35:10.128Z,22.50
2022-12-25T01:37:38.732Z,28.05
2022-12-25T01:40:09.120Z,32.50
2022-12-25T01:42:37.833Z,24.80
2022-12-25T01:45:36.423Z,29.05
2022-12-25T01:48:09.787Z,25.23
2022-12-25T01:50:40.754Z,20.40
2022-12-25T01:53:09.415Z,20.27
2022-12-25T01:55:39.367Z,25.95
2022-12-25T01:58:08.241Z,16.52
2022-12-25T02:00:38.235Z,19.97
2022-12-25T02:03:07.219Z,17.48
2022-12-25T02:05:36.793Z,14.43
2022-12-25T02:08:10.583Z,15.70
2022-12-25T02:10:39.918Z,14.77
2022-12-25T02:13:09.664Z,25.83
2022-12-25T02:18:17.201Z,19.38
2022-12-25T02:21:08.197Z,14.02
2022-12-25T02:23:50.715Z,18.38
2022-12-25T02:26:57.897Z,20.60
2022-12-25T02:29:36.281Z,18.10
2022-12-25T02:32:11.412Z,20.75
2022-12-25T02:34:47.489Z,21.48
2022-12-25T02:37:20.638Z,22.52
2022-12-25T02:39:57.995Z,20.08
2022-12-25T02:42:57.595Z,17.50
2022-12-25T02:45:52.194Z,22.75
2022-12-25T02:48:40.919Z,25.00
2022-12-25T02:51:30.557Z,21.48
2022-12-25T02:54:19.335Z,15.02
2022-12-25T02:57:07.393Z,18.05
2022-12-25T02:59:55.829Z,17.10
2022-12-25T03:02:45.595Z,17.63
2022-12-25T03:08:07.456Z,25.02
2022-12-25T03:10:52.863Z,14.20
2022-12-25T03:13:25.584Z,15.93
2022-12-25T03:16:11.743Z,20.33
2022-12-25T03:18:41.780Z,16.58
2022-12-25T03:21:27.870Z,16.00
2022-12-25T03:24:18.637Z,17.15
2022-12-25T03:26:56.484Z,20.98
2022-12-25T03:29:43.218Z,16.88
2022-12-25T03:32:20.744Z,22.83
2022-12-25T03:35:19.937Z,23.77
2022-12-25T03:38:14.414Z,18.52
2022-12-25T03:41:19.562Z,23.30
2022-12-25T03:44:12.604Z,14.77
2022-12-25T03:47:05.684Z,13.65
2022-12-25T03:50:01.937Z,13.18
2022-12-25T03:52:52.044Z,16.95
2022-12-25T03:55:38.849Z,15.10
2022-12-25T03:58:34.934Z,18.88
2022-12-25T04:01:20.919Z,18.58
2022-12-25T04:04:06.797Z,19.05
2022-12-25T04:06:52.741Z,20.00
2022-12-25T04:09:40.003Z,21.55
2022-12-25T04:12:26.391Z,19.38
2022-12-25T04:15:12.031Z,23.92
2022-12-25T04:17:58.019Z,18.98
2022-12-25T04:20:43.881Z,21.60
2022-12-25T04:23:29.610Z,14.38
2022-12-25T04:26:18.104Z,14.95
2022-12-25T04:29:03.875Z,16.95
2022-12-25T04:31:49.747Z,13.43
2022-12-25T04:34:35.540Z,27.48
2022-12-25T04:37:03.936Z,19.13
2022-12-25T04:39:32.349Z,18.30
2022-12-25T04:42:02.134Z,29.77
2022-12-25T04:44:30.706Z,24.40
2022-12-25T04:46:59.147Z,21.63
2022-12-25T04:49:27.633Z,15.00
2022-12-25T04:51:56.019Z,25.92
2022-12-25T04:54:24.704Z,27.52
2022-12-25T04:56:53.366Z,20.92
2022-12-25T04:59:23.439Z,28.48
2022-12-25T05:01:51.966Z,22.73
2022-12-25T05:04:20.447Z,20.33
2022-12-25T05:06:48.907Z,23.45
2022-12-25T05:09:17.371Z,21.15
2022-12-25T05:11:45.866Z,20.50
2022-12-25T05:14:14.405Z,22.05
2022-12-25T05:16:44.398Z,20.48
2022-12-25T05:21:41.062Z,19.90
2022-12-25T05:24:09.509Z,22.83
2022-12-25T05:26:38.476Z,28.23
2022-12-25T05:29:07.053Z,17.73
2022-12-25T05:31:35.548Z,22.52
2022-12-25T05:34:05.413Z,19.83
2022-12-25T05:36:33.865Z,15.68
2022-12-25T05:39:02.356Z,22.45
2022-12-25T05:41:34.506Z,20.38
2022-12-25T05:44:03.744Z,24.05
2022-12-25T05:46:32.226Z,17.43
2022-12-25T05:49:00.761Z,25.88
2022-12-25T05:51:30.810Z,23.33
2022-12-25T05:53:59.360Z,24.08
2022-12-25T05:56:27.864Z,25.17
2022-12-25T05:58:56.432Z,19.75
2022-12-25T06:01:27.708Z,22.33
2022-12-25T06:03:57.015Z,24.55
2022-12-25T06:06:25.752Z,20.13
2022-12-25T06:08:56.279Z,19.85
2022-12-25T06:11:24.830Z,19.70
2022-12-25T06:13:54.135Z,21.90
2022-12-25T06:16:22.970Z,19.88
2022-12-25T06:18:52.961Z,25.43
2022-12-25T06:21:21.522Z,23.52
2022-12-25T06:23:50.278Z,22.77
2022-12-25T06:26:21.078Z,26.23
2022-12-25T06:28:49.560Z,28.35
2022-12-25T06:31:19.506Z,26.38
2022-12-25T06:33:47.930Z,22.23
2022-12-25T06:36:20.082Z,29.90
2022-12-25T06:38:49.293Z,28.80
2022-12-25T06:41:20.579Z,34.28
2022-12-25T06:43:50.143Z,43.05
2022-12-25T06:46:19.118Z,45.85
2022-12-25T06:48:49.610Z,28.30
2022-12-25T06:51:19.195Z,41.83
2022-12-25T06:53:48.270Z,39.58
2022-12-25T06:56:19.468Z,51.15
2022-12-25T06:58:50.935Z,51.85
2022-12-25T07:01:22.841Z,52.90
2022-12-25T07:03:54.114Z,51.28
2022-12-25T07:06:22.795Z,38.92
2022-12-25T07:08:51.300Z,43.97
2022-12-25T07:11:20.700Z,54.40
2022-12-25T07:13:51.083Z,42.67
2022-12-25T07:16:20.301Z,49.72
2022-12-25T07:18:48.874Z,40.42
2022-12-25T07:21:19.898Z,44.58
2022-12-25T07:23:50.866Z,38.97
2022-12-25T07:26:19.404Z,60.53
2022-12-25T07:28:47.947Z,50.47
2022-12-25T07:31:19.600Z,62.13
2022-12-25T07:33:48.516Z,66.20
2022-12-25T07:36:17.643Z,76.17
2022-12-25T07:38:49.935Z,78.03
2022-12-25T07:41:18.860Z,77.75
2022-12-25T07:43:51.467Z,74.20
2022-12-25T07:46:22.041Z,74.32
2022-12-25T07:48:50.477Z,76.60
2022-12-25T07:51:19.071Z,58.38
2022-12-25T07:53:47.594Z,54.88
2022-12-25T07:56:18.764Z,44.55
2022-12-25T07:58:48.325Z,53.28
2022-12-25T08:01:20.331Z,63.17
2022-12-25T08:03:55.042Z,69.88
2022-12-25T08:06:26.743Z,68.35
2022-12-25T08:08:55.155Z,83.55
2022-12-25T08:11:23.792Z,87.47
2022-12-25T08:13:52.225Z,87.00
2022-12-25T08:16:20.845Z,97.55
2022-12-25T08:18:49.326Z,80.78
2022-12-25T08:21:19.105Z,90.07
2022-12-25T08:26:20.387Z,171.30
2022-12-25T08:28:50.048Z,148.10
2022-12-25T08:33:48.977Z,128.05
2022-12-25T08:36:19.232Z,102.40
2022-12-25T08:38:47.891Z,114.45
2022-12-25T08:41:17.431Z,113.32
2022-12-25T08:43:46.386Z,86.55
2022-12-25T08:46:14.891Z,78.20
2022-12-25T08:48:44.064Z,113.03
2022-12-25T08:51:15.509Z,173.05
2022-12-25T08:53:47.123Z,170.10
2022-12-25T08:56:16.849Z,115.07
2022-12-25T09:01:13.964Z,166.52
2022-12-25T09:03:43.014Z,205.32
2022-12-25T09:06:12.962Z,167.13
2022-12-25T09:11:21.670Z,154.45
2022-12-25T09:13:50.384Z,151.90
2022-12-25T09:16:21.449Z,160.30
2022-12-25T09:18:50.608Z,148.57
2022-12-25T09:21:19.325Z,156.77
2022-12-25T09:23:47.841Z,165.68
2022-12-25T09:26:19.105Z,150.50
2022-12-25T09:28:51.982Z,162.68
2022-12-25T09:31:21.257Z,213.85
2022-12-25T09:33:50.120Z,225.97
2022-12-25T09:36:21.179Z,186.40
2022-12-25T09:38:49.778Z,158.00
2022-12-25T09:41:28.345Z,128.05
2022-12-25T09:44:00.669Z,134.82
2022-12-25T09:46:37.231Z,150.43
2022-12-25T09:49:12.964Z,123.50
2022-12-25T09:51:44.495Z,109.15
2022-12-25T09:54:19.540Z,92.75
2022-12-25T09:56:49.506Z,137.73
2022-12-25T09:59:24.399Z,89.82
2022-12-25T10:02:05.136Z,74.00
2022-12-25T10:04:54.976Z,57.55
2022-12-25T10:10:03.792Z,68.00
2022-12-25T10:12:43.830Z,48.78
2022-12-25T10:15:26.218Z,48.42
2022-12-25T10:18:08.524Z,46.97
2022-12-25T10:20:46.713Z,36.58
2022-12-25T10:23:20.174Z,37.25
2022-12-25T10:25:49.158Z,29.98
2022-12-25T10:28:27.881Z,38.23
2022-12-25T10:31:00.534Z,32.33
2022-12-25T10:33:29.403Z,25.65
2022-12-25T10:35:58.045Z,28.65
2022-12-25T10:38:26.786Z,36.40
2022-12-25T10:41:19.154Z,24.65
2022-12-25T10:43:51.095Z,22.98
2022-12-25T10:46:21.241Z,19.65
2022-12-25T10:48:53.345Z,22.77
2022-12-25T10:51:30.545Z,16.45
2022-12-25T10:53:59.608Z,21.48
2022-12-25T10:56:28.051Z,18.97
2022-12-25T10:59:07.771Z,17.58
2022-12-25T11:01:36.745Z,16.90
2022-12-25T11:04:05.477Z,17.37
2022-12-25T11:06:34.650Z,17.55
2022-12-25T11:09:04.150Z,13.80
2022-12-25T11:11:32.780Z,19.73
2022-12-25T11:14:03.224Z,17.90
2022-12-25T11:16:37.234Z,14.70
2022-12-25T11:19:25.856Z,14.05
2022-12-25T11:21:56.296Z,14.02
2022-12-25T11:24:28.079Z,18.60
2022-12-25T11:26:59.097Z,16.92
2022-12-25T11:29:37.804Z,12.88
2022-12-25T11:32:16.897Z,21.08
2022-12-25T11:34:47.383Z,15.63
2022-12-25T11:37:21.127Z,18.27
2022-12-25T11:39:49.710Z,15.15
2022-12-25T11:42:24.376Z,18.80
2022-12-25T11:44:58.595Z,19.63
2022-12-25T11:47:34.680Z,15.82
2022-12-25T11:50:08.839Z,23.35
2022-12-25T11:52:40.335Z,18.13
2022-12-25T11:55:19.194Z,14.57
2022-12-25T11:57:54.230Z,10.88
2022-12-25T12:00:23.115Z,18.95
2022-12-25T12:02:59.948Z,15.93
2022-12-25T12:05:35.930Z,15.60
2022-12-25T12:08:06.156Z,15.60
2022-12-25T12:10:47.207Z,15.68
2022-12-25T12:13:28.498Z,17.02
2022-12-25T12:15:57.756Z,17.00
2022-12-25T12:18:34.309Z,18.17
2022-12-25T12:21:06.955Z,12.40
2022-12-25T12:23:48.784Z,18.45
2022-12-25T12:26:21.417Z,17.60
2022-12-25T12:28:52.404Z,19.77
2022-12-25T12:31:21.011Z,14.75
2022-12-25T12:33:55.819Z,16.77
2022-12-25T12:36:35.709Z,14.35
2022-12-25T12:39:06.264Z,14.73
2022-12-25T12:41:46.028Z,14.52
2022-12-25T12:44:17.340Z,17.35
2022-12-25T12:46:53.525Z,14.70
2022-12-25T12:49:26.602Z,17.10
2022-12-25T12:52:05.809Z,24.48
2022-12-25T12:54:35.852Z,15.93
2022-12-25T12:57:06.707Z,20.73
2022-12-25T12:59:40.105Z,18.15
2022-12-25T13:02:34.305Z,18.90
2022-12-25T13:05:06.868Z,20.17
2022-12-25T13:07:49.126Z,18.55
2022-12-25T13:10:28.886Z,13.38
2022-12-25T13:13:00.382Z,14.70
2022-12-25T13:15:31.774Z,24.70
2022-12-25T13:18:04.428Z,20.45
2022-12-25T13:20:42.819Z,17.17
2022-12-25T13:23:16.646Z,22.23
2022-12-25T13:25:53.532Z,19.70
2022-12-25T13:28:29.389Z,16.08
2022-12-25T13:31:07.437Z,20.65
2022-12-25T13:33:36.482Z,21.27
2022-12-25T13:36:12.578Z,21.30
2022-12-25T13:38:46.153Z,25.65
2022-12-25T13:41:37.330Z,23.30
2022-12-25T13:44:15.870Z,26.23
2022-12-25T13:46:44.632Z,25.05
2022-12-25T13:49:16.576Z,23.60
2022-12-25T13:51:46.691Z,20.35
2022-12-25T13:54:16.883Z,27.67
2022-12-25T13:56:49.850Z,20.98
2022-12-25T13:59:20.541Z,28.02
2022-12-25T14:01:51.012Z,22.75
2022-12-25T14:04:22.706Z,23.20
2022-12-25T14:06:53.817Z,21.25
2022-12-25T14:09:22.666Z,21.65
2022-12-25T14:11:53.319Z,32.80
2022-12-25T14:14:24.208Z,25.48
2022-12-25T14:16:55.656Z,25.42
2022-12-25T14:19:29.207Z,24.50
2022-12-25T14:22:03.840Z,23.67
2022-12-25T14:24:35.059Z,24.42
2022-12-25T14:27:05.806Z,30.35
2022-12-25T14:29:38.638Z,19.27
2022-12-25T14:32:08.946Z,26.25
2022-12-25T14:34:37.571Z,26.40
2022-12-25T14:37:15.140Z,24.05
2022-12-25T14:39:47.106Z,29.75
2022-12-25T14:42:21.494Z,23.42
2022-12-25T14:44:59.770Z,24.58
2022-12-25T14:47:28.855Z,28.20
2022-12-25T14:49:58.119Z,40.70
2022-12-25T14:52:31.015Z,29.23
2022-12-25T14:55:02.524Z,29.23
2022-12-25T14:57:33.777Z,34.70
2022-12-25T15:00:06.361Z,32.45
2022-12-25T15:02:41.815Z,22.48
2022-12-25T15:05:26.007Z,29.52
2022-12-25T15:08:07.643Z,30.30
2022-12-25T15:13:26.676Z,31.50
2022-12-25T15:15:59.507Z,23.65
2022-12-25T15:18:33.033Z,24.15
2022-12-25T15:21:01.923Z,26.13
2022-12-25T15:23:31.915Z,29.60
2022-12-25T15:26:00.547Z,22.50
2022-12-25T15:28:29.257Z,19.45
2022-12-25T15:30:57.745Z,23.45
2022-12-25T15:33:26.232Z,20.13
2022-12-25T15:35:55.227Z,22.65
2022-12-25T15:38:24.261Z,23.67
2022-12-25T15:40:54.015Z,29.23
2022-12-25T15:43:40.400Z,29.50
2022-12-25T15:46:10.524Z,27.45
2022-12-25T15:48:39.304Z,20.20
2022-12-25T15:51:07.780Z,24.40
2022-12-25T15:53:36.212Z,25.08
2022-12-25T15:56:06.707Z,27.95
2022-12-25T15:58:35.475Z,24.92
2022-12-25T16:01:03.898Z,27.67
2022-12-25T16:03:32.870Z,24.08
2022-12-25T16:06:01.639Z,25.23
2022-12-25T16:08:30.127Z,26.98
2022-12-25T16:10:58.535Z,31.27
2022-12-25T16:13:28.405Z,25.33
2022-12-25T16:18:26.307Z,24.75
2022-12-25T16:20:56.400Z,23.63
2022-12-25T16:23:25.717Z,25.35
2022-12-25T16:25:54.165Z,26.05
2022-12-25T16:28:22.732Z,28.80
2022-12-25T16:30:52.533Z,26.33
2022-12-25T16:35:51.335Z,30.63
2022-12-25T16:38:20.145Z,24.25
2022-12-25T16:40:55.535Z,27.08
2022-12-25T16:43:24.546Z,25.65
2022-12-25T16:45:54.774Z,22.77
2022-12-25T16:48:23.241Z,27.90
2022-12-25T16:50:52.083Z,27.45
2022-12-25T16:53:20.530Z,25.83
2022-12-25T16:55:49.161Z,28.00
2022-12-25T16:58:17.921Z,26.73
2022-12-25T17:00:49.468Z,28.75
2022-12-25T17:03:19.610Z,25.08
2022-12-25T17:08:16.465Z,23.27
2022-12-25T17:10:45.076Z,28.95
2022-12-25T17:13:14.035Z,22.10
2022-12-25T17:15:48.353Z,23.30
2022-12-25T17:18:22.178Z,22.80
2022-12-25T17:20:52.119Z,23.42
2022-12-25T17:25:49.416Z,23.65
2022-12-25T17:28:18.197Z,24.50
2022-12-25T17:30:46.646Z,30.35
2022-12-25T17:33:15.078Z,16.58
2022-12-25T17:35:45.224Z,23.05
2022-12-25T17:38:13.705Z,20.15
2022-12-25T17:40:42.333Z,20.02
2022-12-25T17:43:14.341Z,21.33
2022-12-25T17:45:47.687Z,19.48
2022-12-25T17:48:16.254Z,29.52
2022-12-25T17:50:46.093Z,17.85
2022-12-25T17:55:43.488Z,19.77
2022-12-25T17:58:12.249Z,22.73
2022-12-25T18:00:41.080Z,20.25
2022-12-25T18:03:11.878Z,16.98
2022-12-25T18:05:41.830Z,21.20
2022-12-25T18:08:11.960Z,19.63
2022-12-25T18:10:42.612Z,20.85
2022-12-25T18:13:11.469Z,18.30
2022-12-25T18:15:41.530Z,18.25
2022-12-25T18:18:10.990Z,20.08
2022-12-25T18:20:42.222Z,26.80
2022-12-25T18:23:12.379Z,15.48
2022-12-25T18:25:42.649Z,18.83
2022-12-25T18:28:12.017Z,13.77
2022-12-25T18:30:41.432Z,18.02
2022-12-25T18:33:10.085Z,19.92
2022-12-25T18:35:40.645Z,14.77
2022-12-25T18:38:11.498Z,19.08
2022-12-25T18:40:43.025Z,23.50
2022-12-25T18:43:12.842Z,16.92
2022-12-25T18:45:41.928Z,15.60
2022-12-25T18:48:11.697Z,16.97
2022-12-25T18:50:41.919Z,18.02
2022-12-25T18:53:11.794Z,20.02
2022-12-25T18:58:09.860Z,16.05
2022-12-25T19:00:38.526Z,24.20
2022-12-25T19:03:07.120Z,19.90
2022-12-25T19:05:36.174Z,19.58
2022-12-25T19:08:04.705Z,19.10
2022-12-25T19:10:34.800Z,20.65
2022-12-25T19:13:03.591Z,16.13
2022-12-25T19:15:32.825Z,19.17
2022-12-25T19:18:01.341Z,19.35
2022-12-25T19:20:30.166Z,16.83
2022-12-25T19:22:58.730Z,19.88
2022-12-25T19:25:27.836Z,17.63
2022-12-25T19:27:57.679Z,20.98
2022-12-25T19:30:26.351Z,15.57
2022-12-25T19:32:54.781Z,19.25
2022-12-25T19:35:23.542Z,14.32
2022-12-25T19:37:52.102Z,20.83
2022-12-25T19:40:20.563Z,14.57
2022-12-25T19:42:49.454Z,20.77
2022-12-25T19:45:19.765Z,15.48
2022-12-25T19:47:48.250Z,22.27
2022-12-25T19:50:16.733Z,17.75
2022-12-25T19:52:45.688Z,18.65
2022-12-25T19:55:14.077Z,16.65
2022-12-25T19:57:42.594Z,13.98
2022-12-25T20:00:11.987Z,16.90
2022-12-25T20:02:42.432Z,19.15
2022-12-25T20:05:11.351Z,20.25
2022-12-25T20:07:39.760Z,22.90
2022-12-25T20:10:09.868Z,16.75
2022-12-25T20:12:38.303Z,21.40
2022-12-25T20:15:07.917Z,18.20
2022-12-25T20:17:36.401Z,16.48
2022-12-25T20:20:07.178Z,15.27
2022-12-25T20:22:36.043Z,18.00
2022-12-25T20:25:08.899Z,17.80
2022-12-25T20:27:37.699Z,19.13
2022-12-25T20:30:07.225Z,13.95
2022-12-25T20:32:35.985Z,19.02
2022-12-25T20:35:07.060Z,19.90
2022-12-25T20:37:35.506Z,22.38
2022-12-25T20:40:04.370Z,17.25
2022-12-25T20:42:33.078Z,19.60
2022-12-25T20:45:02.031Z,23.95
2022-12-25T20:47:30.568Z,15.45
2022-12-25T20:49:59.139Z,18.25
2022-12-25T20:52:29.274Z,15.55
2022-12-25T20:54:57.698Z,20.10
2022-12-25T20:57:26.581Z,17.45
2022-12-25T20:59:55.269Z,18.75
2022-12-25T21:02:33.914Z,17.70
2022-12-25T21:05:04.621Z,16.63
2022-12-25T21:07:34.550Z,18.70
2022-12-25T21:12:31.902Z,21.83
2022-12-25T21:15:00.727Z,15.73
2022-12-25T21:17:29.587Z,15.20
2022-12-25T21:19:58.031Z,15.00
2022-12-25T21:22:26.436Z,14.63
2022-12-25T21:24:56.324Z,20.58
2022-12-25T21:29:53.235Z,16.15
2022-12-25T21:32:39.218Z,17.65
2022-12-25T21:35:08.230Z,16.67
2022-12-25T21:37:37.105Z,18.90
2022-12-25T21:40:14.376Z,15.55
2022-12-25T21:42:44.653Z,16.40
2022-12-25T21:45:13.044Z,15.60
2022-12-25T21:48:02.655Z,14.88
2022-12-25T21:50:47.799Z,13.45
2022-12-25T21:53:16.929Z,15.27
2022-12-25T21:55:57.062Z,16.38
2022-12-25T21:58:25.654Z,21.92
2022-12-25T22:00:54.600Z,14.38
2022-12-25T22:03:24.693Z,21.43
2022-12-25T22:06:13.703Z,18.02
2022-12-25T22:08:44.871Z,14.70
2022-12-25T22:11:28.637Z,17.50
2022-12-25T22:14:11.000Z,14.82
2022-12-25T22:16:57.127Z,18.90
2022-12-25T22:19:45.202Z,17.58
2022-12-25T22:22:13.924Z,16.60
2022-12-25T22:24:42.357Z,15.75
2022-12-25T22:27:12.570Z,16.83
2022-12-25T22:29:41.221Z,19.05
2022-12-25T22:32:10.759Z,15.35
2022-12-25T22:34:39.325Z,18.70
2022-12-25T22:37:09.717Z,18.02
2022-12-25T22:39:38.371Z,18.13
2022-12-25T22:42:07.233Z,19.27
2022-12-25T22:44:37.249Z,15.30
2022-12-25T22:47:05.900Z,16.52
2022-12-25T22:49:35.025Z,16.58
2022-12-25T22:52:04.213Z,16.50
2022-12-25T22:54:32.982Z,20.45
2022-12-25T22:57:01.392Z,18.33
2022-12-25T22:59:30.337Z,17.13
2022-12-25T23:02:00.876Z,18.87
2022-12-25T23:04:29.676Z,16.95
2022-12-25T23:06:58.516Z,18.30
2022-12-25T23:09:28.949Z,15.93
2022-12-25T23:11:58.466Z,22.88
2022-12-25T23:14:39.360Z,17.38
2022-12-25T23:17:31.950Z,16.63
2022-12-25T23:20:20.360Z,16.85
2022-12-25T23:23:06.523Z,17.90
2022-12-25T23:25:53.970Z,19.27
2022-12-25T23:28:36.600Z,15.18
2022-12-25T23:31:05.414Z,19.85
2022-12-25T23:33:36.516Z,16.85
2022-12-25T23:36:05.323Z,23.55
2022-12-25T23:38:33.853Z,22.17
2022-12-25T23:41:02.382Z,18.85
2022-12-25T23:43:31.628Z,18.75
2022-12-25T23:46:00.249Z,20.33
2022-12-25T23:48:29.240Z,19.20
2022-12-25T23:51:03.730Z,17.50
2022-12-25T23:53:32.496Z,22.27
2022-12-25T23:56:02.189Z,22.52
2022-12-25T23:58:30.921Z,17.25
